createdAt,value
2018-11-13T05:31:15.710Z,80.70
2018-11-13T05:54:15.454Z,81.92
2018-11-13T05:55:15.443Z,82.23
2018-11-13T05:56:15.432Z,82.12
2018-11-13T05:57:15.421Z,82.57
2018-11-13T05:58:15.411Z,82.73
2018-11-13T05:59:15.403Z,82.53
2018-11-13T06:00:15.389Z,82.84
2018-11-13T06:01:15.378Z,82.84
2018-11-13T06:02:15.365Z,82.16
2018-11-13T06:03:15.359Z,82.23
2018-11-13T06:04:15.346Z,82.53
2018-11-13T06:05:15.334Z,82.63
2018-11-13T06:06:15.327Z,82.12
2018-11-13T06:07:15.311Z,81.61
2018-11-13T06:08:15.311Z,82.33
2018-11-13T06:09:15.290Z,82.12
2018-11-13T06:10:15.282Z,81.71
2018-11-13T06:11:15.278Z,81.98
2018-11-13T06:12:15.255Z,82.12
2018-11-13T06:13:15.275Z,82.94
2018-11-13T06:14:15.245Z,82.63
2018-11-13T06:15:15.223Z,82.73
2018-11-13T06:16:15.210Z,82.53
2018-11-13T06:17:15.202Z,82.23
2018-11-13T06:18:15.233Z,82.26
2018-11-13T06:19:15.178Z,82.12
2018-11-13T06:20:15.174Z,82.43
2018-11-13T06:21:15.155Z,82.53
2018-11-13T06:22:15.153Z,82.23
2018-11-13T06:23:15.133Z,82.23
2018-11-13T06:24:15.126Z,83.04
2018-11-13T06:25:15.114Z,82.77
2018-11-13T06:26:15.100Z,82.87
2018-11-13T06:27:15.092Z,83.14
2018-11-13T06:28:15.077Z,83.14
2018-11-13T06:29:15.066Z,83.55
2018-11-13T06:30:15.062Z,83.14
2018-11-13T06:31:15.048Z,83.04
2018-11-13T06:32:15.033Z,83.08
2018-11-13T06:33:15.026Z,83.14
2018-11-13T06:34:15.011Z,83.65
2018-11-13T06:35:15.006Z,84.10
2018-11-13T06:36:14.997Z,83.59
2018-11-13T06:37:14.987Z,84.41
2018-11-13T06:38:14.969Z,84.61
2018-11-13T06:39:14.957Z,84.85
2018-11-13T06:40:14.944Z,84.65
2018-11-13T06:41:14.940Z,85.16
2018-11-13T06:42:14.930Z,84.96
2018-11-13T06:43:14.910Z,84.24
2018-11-13T06:44:14.899Z,85.36
2018-11-13T06:45:14.892Z,84.91
2018-11-13T06:46:14.881Z,84.71
2018-11-13T06:47:14.867Z,85.32
2018-11-13T06:48:14.916Z,84.91
2018-11-13T06:49:14.948Z,84.71
2018-11-13T06:50:14.839Z,85.28
2018-11-13T06:51:14.821Z,85.18
2018-11-13T06:52:14.810Z,85.22
2018-11-13T06:53:14.801Z,85.22
2018-11-13T06:54:14.793Z,85.32
2018-11-13T06:55:14.776Z,85.73
2018-11-13T06:56:14.769Z,85.67
2018-11-13T06:57:14.756Z,86.18
2018-11-13T06:58:14.742Z,86.18
2018-11-13T06:59:14.732Z,86.59
2018-11-13T07:00:14.721Z,86.48
2018-11-13T07:01:14.712Z,86.79
2018-11-13T07:02:14.700Z,86.59
2018-11-13T07:03:14.694Z,86.18
2018-11-13T07:04:14.676Z,86.14
2018-11-13T07:05:14.818Z,86.54
2018-11-13T07:06:14.656Z,86.45
2018-11-13T07:07:14.642Z,86.45
2018-11-13T07:08:14.634Z,86.45
2018-11-13T07:09:14.621Z,86.34
2018-11-13T07:10:14.616Z,85.79
2018-11-13T07:11:14.622Z,85.69
2018-11-13T07:12:14.594Z,85.73
2018-11-13T07:13:14.585Z,85.52
2018-11-13T07:14:14.572Z,85.49
2018-11-13T07:15:14.557Z,85.28
2018-11-13T07:16:14.544Z,85.18
2018-11-13T07:17:14.534Z,85.18
2018-11-13T07:18:14.553Z,85.28
2018-11-13T07:19:14.510Z,84.57
2018-11-13T07:20:14.507Z,84.77
2018-11-13T07:21:14.489Z,84.67
2018-11-13T07:22:14.479Z,85.18
2018-11-13T07:23:14.465Z,85.24
2018-11-13T07:24:14.461Z,85.18
2018-11-13T07:25:14.490Z,84.97
2018-11-13T07:26:14.436Z,85.18
2018-11-13T07:27:14.441Z,84.57
2018-11-13T07:28:14.412Z,84.57
2018-11-13T07:29:14.403Z,84.36
2018-11-13T07:30:14.389Z,84.27
2018-11-13T07:31:14.401Z,84.83
2018-11-13T07:32:14.371Z,84.57
2018-11-13T07:33:14.355Z,84.74
2018-11-13T07:34:14.404Z,84.42
2018-11-13T07:35:14.337Z,84.57
2018-11-13T07:36:14.321Z,84.47
2018-11-13T07:37:14.311Z,84.67
2018-11-13T07:38:14.304Z,85.08
2018-11-13T07:39:14.290Z,85.14
2018-11-13T07:40:14.301Z,86.30
2018-11-13T07:41:14.423Z,86.40
2018-11-13T07:42:14.298Z,86.92
2018-11-13T07:43:14.251Z,87.36
2018-11-13T07:44:14.242Z,87.67
2018-11-13T07:45:14.244Z,87.26
2018-11-13T07:46:14.246Z,87.16
2018-11-13T07:47:14.318Z,86.75
2018-11-13T07:48:14.188Z,88.01
2018-11-13T07:49:14.178Z,88.22
2018-11-13T07:50:14.170Z,88.01
2018-11-13T07:51:14.243Z,88.48
2018-11-13T07:52:14.148Z,88.12
2018-11-13T07:53:14.141Z,87.97
2018-11-13T07:54:14.127Z,88.07
2018-11-13T07:55:14.110Z,87.77
2018-11-13T07:56:14.101Z,88.07
2018-11-13T07:57:14.091Z,87.12
2018-11-13T07:58:14.079Z,87.97
2018-11-13T07:59:14.074Z,87.46
2018-11-13T08:00:14.062Z,87.73
2018-11-13T08:01:14.079Z,87.77
2018-11-13T08:02:14.042Z,87.62
2018-11-13T08:03:14.023Z,88.18
2018-11-13T08:04:14.013Z,87.77
2018-11-13T08:05:14.004Z,87.77
2018-11-13T08:06:14.041Z,88.03
2018-11-13T08:07:13.987Z,87.32
2018-11-13T08:08:13.968Z,87.22
2018-11-13T08:09:13.999Z,87.01
2018-11-13T08:10:13.946Z,86.98
2018-11-13T08:11:13.934Z,87.01
2018-11-13T08:12:13.929Z,86.92
2018-11-13T08:13:14.068Z,87.01
2018-11-13T08:14:13.899Z,86.71
2018-11-13T08:15:13.890Z,86.77
2018-11-13T08:16:13.880Z,87.18
2018-11-13T08:17:13.868Z,87.38
2018-11-13T08:18:13.855Z,87.38
2018-11-13T08:19:13.843Z,86.77
2018-11-13T08:20:13.845Z,86.77
2018-11-13T08:21:13.920Z,85.85
2018-11-13T08:22:13.918Z,86.22
2018-11-13T08:23:13.799Z,86.37
2018-11-13T08:24:13.788Z,86.32
2018-11-13T08:25:13.872Z,86.32
2018-11-13T08:26:13.809Z,86.43
2018-11-13T08:27:13.756Z,86.32
2018-11-13T08:28:13.789Z,86.43
2018-11-13T08:29:13.789Z,86.52
2018-11-13T08:30:13.725Z,86.22
2018-11-13T08:31:13.721Z,86.22
2018-11-13T08:32:13.699Z,86.02
2018-11-13T08:33:13.731Z,86.43
2018-11-13T08:34:13.687Z,86.43
2018-11-13T08:35:13.668Z,86.43
2018-11-13T08:36:13.656Z,86.32
2018-11-13T08:37:13.648Z,86.12
2018-11-13T08:38:13.638Z,86.63
2018-11-13T08:39:13.623Z,86.22
2018-11-13T08:40:13.613Z,86.52
2018-11-13T08:41:13.599Z,86.32
2018-11-13T08:42:13.598Z,85.91
2018-11-13T08:43:13.577Z,86.32
2018-11-13T08:44:13.621Z,85.98
2018-11-13T08:45:13.561Z,85.88
2018-11-13T08:46:13.547Z,85.98
2018-11-13T08:47:13.539Z,86.18
2018-11-13T08:48:13.522Z,85.98
2018-11-13T08:49:13.514Z,85.27
2018-11-13T08:50:13.571Z,85.88
2018-11-13T08:51:13.495Z,85.36
2018-11-13T08:52:13.482Z,85.77
2018-11-13T08:53:13.466Z,85.98
2018-11-13T08:54:13.455Z,85.47
2018-11-13T08:55:13.447Z,85.06
2018-11-13T08:56:13.434Z,85.27
2018-11-13T08:57:13.422Z,86.18
2018-11-13T08:58:13.417Z,85.57
2018-11-13T08:59:13.575Z,86.18
2018-11-13T09:00:13.394Z,86.08
2018-11-13T09:01:13.382Z,85.77
2018-11-13T09:02:13.367Z,85.57
2018-11-13T09:03:13.356Z,85.16
2018-11-13T09:04:13.344Z,85.67
2018-11-13T09:05:13.423Z,85.27
2018-11-13T09:06:13.324Z,85.67
2018-11-13T09:07:13.314Z,84.96
2018-11-13T09:08:13.299Z,85.12
2018-11-13T09:09:13.290Z,85.22
2018-11-13T09:10:13.276Z,85.06
2018-11-13T09:11:13.292Z,85.02
2018-11-13T09:12:13.327Z,85.02
2018-11-13T09:13:13.249Z,85.02
2018-11-13T09:14:13.271Z,84.61
2018-11-13T09:15:13.221Z,84.51
2018-11-13T09:16:13.209Z,85.12
2018-11-13T09:17:13.202Z,85.02
2018-11-13T09:18:13.188Z,84.72
2018-11-13T09:19:13.362Z,85.02
2018-11-13T09:20:13.173Z,84.21
2018-11-13T09:21:13.155Z,84.00
2018-11-13T09:22:13.143Z,84.21
2018-11-13T09:23:13.137Z,84.37
2018-11-13T09:24:13.129Z,84.51
2018-11-13T09:25:13.113Z,84.11
2018-11-13T09:26:13.098Z,84.21
2018-11-13T09:27:13.088Z,84.41
2018-11-13T09:28:13.079Z,84.17
2018-11-13T09:29:13.077Z,83.86
2018-11-13T09:30:13.170Z,83.66
2018-11-13T09:31:13.111Z,83.76
2018-11-13T09:32:13.030Z,83.76
2018-11-13T09:33:13.019Z,83.56
2018-11-13T09:34:13.009Z,83.76
2018-11-13T09:35:13.091Z,84.06
2018-11-13T09:36:12.994Z,83.76
2018-11-13T09:37:13.000Z,84.06
2018-11-13T09:38:12.974Z,83.66
2018-11-13T09:39:12.985Z,83.56
2018-11-13T09:40:12.993Z,83.05
2018-11-13T09:41:12.930Z,83.25
2018-11-13T09:42:12.921Z,82.75
2018-11-13T09:43:12.910Z,82.54
2018-11-13T09:44:12.900Z,82.95
2018-11-13T09:45:12.886Z,82.81
2018-11-13T09:46:12.874Z,83.11
2018-11-13T09:47:12.867Z,82.50
2018-11-13T09:48:12.854Z,82.50
2018-11-13T09:49:12.848Z,82.70
2018-11-13T09:50:12.832Z,82.50
2018-11-13T09:51:12.820Z,82.30
2018-11-13T09:52:12.807Z,82.81
2018-11-13T09:53:12.820Z,83.28
2018-11-13T09:54:12.789Z,82.50
2018-11-13T09:55:12.773Z,82.81
2018-11-13T09:56:12.790Z,82.47
2018-11-13T09:57:12.803Z,82.67
2018-11-13T09:58:12.740Z,82.40
2018-11-13T09:59:12.728Z,82.56
2018-11-13T10:00:12.844Z,82.06
2018-11-13T10:01:13.050Z,82.50
2018-11-13T10:02:13.419Z,82.00
2018-11-13T10:03:13.320Z,82.40
2018-11-13T10:04:13.331Z,82.40
2018-11-13T10:05:13.239Z,82.40
2018-11-13T10:06:12.652Z,82.50
2018-11-13T10:07:12.638Z,82.61
2018-11-13T10:08:12.628Z,82.50
2018-11-13T10:09:12.616Z,82.67
2018-11-13T10:10:12.645Z,82.47
2018-11-13T10:11:12.598Z,82.61
2018-11-13T10:12:12.585Z,82.91
2018-11-13T10:13:37.050Z,82.36
2018-11-13T10:14:37.041Z,82.47
2018-11-13T10:15:37.031Z,82.67
2018-11-13T10:16:37.016Z,82.77
2018-11-13T10:17:37.095Z,81.95
2018-11-13T10:18:36.989Z,82.26
2018-11-13T10:19:36.980Z,81.95
2018-11-13T10:20:36.967Z,82.36
2018-11-13T10:21:36.956Z,81.95
2018-11-13T10:22:36.945Z,82.06
2018-11-13T10:23:36.932Z,81.95
2018-11-13T10:24:36.921Z,82.47
2018-11-13T10:25:36.911Z,82.06
2018-11-13T10:26:37.068Z,82.26
2018-11-13T10:27:36.932Z,82.47
2018-11-13T10:28:36.875Z,82.47
2018-11-13T10:29:36.873Z,82.16
2018-11-13T10:30:36.852Z,82.16
2018-11-13T10:31:36.890Z,82.56
2018-11-13T10:32:38.835Z,82.56
2018-11-13T10:33:36.821Z,82.47
2018-11-13T10:34:36.806Z,82.56
2018-11-13T10:35:36.795Z,82.33
2018-11-13T10:36:36.789Z,82.33
2018-11-13T10:37:36.777Z,82.26
2018-11-13T10:38:36.760Z,82.36
2018-11-13T10:39:36.748Z,82.47
2018-11-13T10:40:36.907Z,82.77
2018-11-13T10:41:36.769Z,82.77
2018-11-13T10:42:36.714Z,82.56
2018-11-13T10:43:36.703Z,82.26
2018-11-13T10:44:36.693Z,82.67
2018-11-13T10:45:36.692Z,82.67
2018-11-13T10:46:36.675Z,83.28
2018-11-13T10:47:36.664Z,83.58
2018-11-13T10:48:36.645Z,83.17
2018-11-13T10:49:36.634Z,83.17
2018-11-13T10:50:36.629Z,82.47
2018-11-13T10:51:36.612Z,82.56
2018-11-13T10:52:36.602Z,82.77
2018-11-13T10:53:36.588Z,81.95
2018-11-13T10:54:36.588Z,82.16
2018-11-13T10:55:36.566Z,81.71
2018-11-13T10:56:36.659Z,81.71
2018-11-13T10:57:36.542Z,82.16
2018-11-13T10:58:36.533Z,82.06
2018-11-13T10:59:36.525Z,82.16
2018-11-13T11:00:36.510Z,81.95
2018-11-13T11:01:36.495Z,82.26
2018-11-13T11:02:36.579Z,82.36
2018-11-13T11:03:36.477Z,82.26
2018-11-13T11:04:36.462Z,81.95
2018-11-13T11:05:36.451Z,82.26
2018-11-13T11:06:36.446Z,81.95
2018-11-13T11:07:36.426Z,81.82
2018-11-13T11:08:36.418Z,81.95
2018-11-13T11:09:36.403Z,82.47
2018-11-13T11:10:36.393Z,81.71
2018-11-13T11:11:36.466Z,81.92
2018-11-13T11:12:36.370Z,82.22
2018-11-13T11:13:36.528Z,82.12
2018-11-13T11:14:36.350Z,81.41
2018-11-13T11:15:36.335Z,81.41
2018-11-13T11:16:36.323Z,81.92
2018-11-13T11:17:36.313Z,80.80
2018-11-13T11:18:36.337Z,81.41
2018-11-13T11:19:36.405Z,81.10
2018-11-13T11:20:36.280Z,81.41
2018-11-13T11:21:36.265Z,81.31
2018-11-13T11:22:36.273Z,81.31
2018-11-13T11:23:36.308Z,81.31
2018-11-13T11:24:36.246Z,81.00
2018-11-13T11:25:36.232Z,80.80
2018-11-13T11:26:36.217Z,81.31
2018-11-13T11:27:36.199Z,80.90
2018-11-13T11:28:36.185Z,81.21
2018-11-13T11:29:36.173Z,81.00
2018-11-13T11:30:36.167Z,81.00
2018-11-13T11:31:36.156Z,81.10
2018-11-13T11:32:36.140Z,80.80
2018-11-13T11:33:36.128Z,80.49
2018-11-13T11:34:36.119Z,81.10
2018-11-13T11:35:36.106Z,81.51
2018-11-13T11:36:36.093Z,81.41
2018-11-13T11:37:36.083Z,81.31
2018-11-13T11:38:36.329Z,80.40
2018-11-13T11:39:36.060Z,81.10
2018-11-13T11:40:36.047Z,81.10
2018-11-13T11:41:36.037Z,81.10
2018-11-13T11:42:36.028Z,81.21
2018-11-13T11:43:36.019Z,81.41
2018-11-13T11:44:36.072Z,81.71
2018-11-13T11:45:35.994Z,81.41
2018-11-13T11:46:35.984Z,81.10
2018-11-13T11:47:35.968Z,81.10
2018-11-13T11:48:35.966Z,80.80
2018-11-13T11:49:35.945Z,80.80
2018-11-13T11:50:35.941Z,80.40
2018-11-13T11:51:35.934Z,80.66
2018-11-13T11:52:35.918Z,79.75
2018-11-13T11:53:35.906Z,80.26
2018-11-13T11:54:35.887Z,80.66
2018-11-13T11:55:35.879Z,80.15
2018-11-13T11:56:35.867Z,79.85
2018-11-13T11:57:35.857Z,79.85
2018-11-13T11:58:35.843Z,79.75
2018-11-13T11:59:35.830Z,79.85
2018-11-13T12:00:35.852Z,80.05
2018-11-13T12:01:35.808Z,79.85
2018-11-13T12:02:35.797Z,79.65
2018-11-13T12:03:35.785Z,80.09
2018-11-13T12:04:35.790Z,80.70
2018-11-13T12:05:35.765Z,80.05
2018-11-13T12:06:35.749Z,80.29
2018-11-13T12:07:35.738Z,80.40
2018-11-13T12:08:35.726Z,80.90
2018-11-13T12:09:35.715Z,80.49
2018-11-13T12:10:35.707Z,80.19
2018-11-13T12:11:35.694Z,80.19
2018-11-13T12:12:35.687Z,80.40
2018-11-13T12:13:35.669Z,80.80
2018-11-13T12:14:35.664Z,81.00
2018-11-13T12:15:35.651Z,81.41
2018-11-13T12:16:35.636Z,81.21
2018-11-13T12:17:35.623Z,80.80
2018-11-13T12:18:35.617Z,81.21
2018-11-13T12:19:35.706Z,81.00
2018-11-13T12:20:35.699Z,80.40
2018-11-13T12:21:35.577Z,80.80
2018-11-13T12:22:35.566Z,80.70
2018-11-13T12:23:35.573Z,80.46
2018-11-13T12:24:35.542Z,80.56
2018-11-13T12:25:35.643Z,80.26
2018-11-13T12:26:35.520Z,79.55
2018-11-13T12:27:35.513Z,79.51
2018-11-13T12:28:35.497Z,78.46
2018-11-13T12:29:35.486Z,78.46
2018-11-13T12:30:35.529Z,78.42
2018-11-13T12:31:35.464Z,77.30
2018-11-13T12:32:35.458Z,76.56
2018-11-13T12:33:35.441Z,75.92
2018-11-13T12:34:35.464Z,76.12
2018-11-13T12:35:35.424Z,75.41
2018-11-13T12:36:35.407Z,75.41
2018-11-13T12:37:35.396Z,75.61
2018-11-13T12:38:35.392Z,75.07
2018-11-13T12:39:35.375Z,74.87
2018-11-13T12:40:35.408Z,74.46
2018-11-13T12:41:35.365Z,74.36
2018-11-13T12:42:35.340Z,74.36
2018-11-13T12:43:35.501Z,74.57
2018-11-13T12:44:35.319Z,74.50
2018-11-13T12:45:35.316Z,74.57
2018-11-13T12:46:35.341Z,74.33
2018-11-13T12:47:35.313Z,73.55
2018-11-13T12:48:35.331Z,73.01
2018-11-13T12:50:35.263Z,73.32
2018-11-13T12:51:35.267Z,73.65
2018-11-13T12:52:35.272Z,73.62
2018-11-13T12:53:35.270Z,73.01
2018-11-13T12:54:35.209Z,73.42
2018-11-13T12:55:35.319Z,73.48
2018-11-13T12:57:35.174Z,73.12
2018-11-13T12:58:35.163Z,73.62
2018-11-13T12:59:35.150Z,74.06
2018-11-13T13:00:35.139Z,73.35
2018-11-13T13:01:35.128Z,74.16
2018-11-13T13:02:35.126Z,74.50
2018-11-13T13:03:35.112Z,74.70
2018-11-13T13:04:35.098Z,74.30
2018-11-13T13:05:35.082Z,74.40
2018-11-13T13:06:35.073Z,74.90
2018-11-13T13:07:35.112Z,74.60
2018-11-13T13:08:35.147Z,75.04
2018-11-13T13:09:35.046Z,76.03
2018-11-13T13:11:35.026Z,76.80
2018-11-13T13:12:35.009Z,76.19
2018-11-13T13:13:35.201Z,76.39
2018-11-13T13:14:34.984Z,76.05
2018-11-13T13:15:34.970Z,76.29
2018-11-13T13:16:34.959Z,74.74
2018-11-13T13:17:34.947Z,75.65
2018-11-13T13:18:34.936Z,75.01
2018-11-13T13:19:34.924Z,74.06
2018-11-13T13:20:34.914Z,73.01
2018-11-13T13:21:34.902Z,73.72
2018-11-13T13:22:34.890Z,73.32
2018-11-13T13:23:34.878Z,74.43
2018-11-13T13:24:34.867Z,74.46
2018-11-13T13:25:34.860Z,74.23
2018-11-13T13:26:34.843Z,72.65
2018-11-13T13:27:34.832Z,72.65
2018-11-13T13:28:34.821Z,73.59
2018-11-13T13:29:34.809Z,74.30
2018-11-13T13:30:34.802Z,74.33
2018-11-13T13:31:34.849Z,74.50
2018-11-13T13:32:34.773Z,74.94
2018-11-13T13:33:34.762Z,74.90
2018-11-13T13:34:34.757Z,74.84
2018-11-13T13:35:34.743Z,74.84
2018-11-13T13:36:34.730Z,74.74
2018-11-13T13:37:34.724Z,75.34
2018-11-13T13:38:34.721Z,75.04
2018-11-13T13:39:34.696Z,75.04
2018-11-13T13:40:34.684Z,75.75
2018-11-13T13:41:34.678Z,75.68
2018-11-13T13:42:34.669Z,75.85
2018-11-13T13:43:34.649Z,75.54
2018-11-13T13:44:34.637Z,75.25
2018-11-13T13:45:34.652Z,75.54
2018-11-13T13:46:34.688Z,75.65
2018-11-13T13:47:34.608Z,75.45
2018-11-13T13:48:34.589Z,75.65
2018-11-13T13:49:34.577Z,75.65
2018-11-13T13:50:34.579Z,75.07
2018-11-13T13:51:34.683Z,75.25
2018-11-13T13:52:34.548Z,75.25
2018-11-13T13:53:34.589Z,74.67
2018-11-13T13:54:34.603Z,74.74
2018-11-13T13:55:34.512Z,74.94
2018-11-13T13:56:34.541Z,74.47
2018-11-13T13:57:34.494Z,74.87
2018-11-13T13:58:34.482Z,75.04
2018-11-13T13:59:34.595Z,75.38
2018-11-13T14:00:34.537Z,75.48
2018-11-13T14:01:34.449Z,75.85
2018-11-13T14:02:34.432Z,75.65
2018-11-13T14:03:34.859Z,75.78
2018-11-13T14:04:34.414Z,75.78
2018-11-13T14:05:34.404Z,75.89
2018-11-13T14:06:34.398Z,75.58
2018-11-13T14:07:34.382Z,75.68
2018-11-13T14:08:34.381Z,75.38
2018-11-13T14:09:34.361Z,75.75
2018-11-13T14:10:34.344Z,75.38
2018-11-13T14:11:34.329Z,75.07
2018-11-13T14:12:34.319Z,74.74
2018-11-13T14:13:34.321Z,74.98
2018-11-13T14:14:34.320Z,74.54
2018-11-13T14:15:34.387Z,74.54
2018-11-13T14:16:34.273Z,74.94
2018-11-13T14:17:34.263Z,74.77
2018-11-13T14:18:34.251Z,74.43
2018-11-13T14:19:34.239Z,74.43
2018-11-13T14:20:34.226Z,74.33
2018-11-13T14:21:34.219Z,74.67
2018-11-13T14:22:34.210Z,74.94
2018-11-13T14:23:34.193Z,75.14
2018-11-13T14:24:34.186Z,74.47
2018-11-13T14:25:34.180Z,74.57
2018-11-13T14:26:34.157Z,74.33
2018-11-13T14:27:34.154Z,74.43
2018-11-13T14:28:34.135Z,74.33
2018-11-13T14:29:34.123Z,74.23
2018-11-13T14:30:34.112Z,74.63
2018-11-13T14:31:34.107Z,73.93
2018-11-13T14:32:34.093Z,74.74
2018-11-13T14:33:34.076Z,73.82
2018-11-13T14:34:34.065Z,73.32
2018-11-13T14:35:34.120Z,73.62
2018-11-13T14:36:34.042Z,73.52
2018-11-13T14:37:34.032Z,74.74
2018-11-13T14:38:34.018Z,74.23
2018-11-13T14:39:34.008Z,73.52
2018-11-13T14:40:33.995Z,73.62
2018-11-13T14:41:33.987Z,74.23
2018-11-13T14:42:33.972Z,74.13
2018-11-13T14:43:33.964Z,74.33
2018-11-13T14:44:33.949Z,73.55
2018-11-13T14:45:33.938Z,73.73
2018-11-13T14:46:34.113Z,73.76
2018-11-13T14:47:33.919Z,74.43
2018-11-13T14:48:33.906Z,73.55
2018-11-13T14:49:33.899Z,73.15
2018-11-13T14:50:33.891Z,74.40
2018-11-13T14:51:33.872Z,75.28
2018-11-13T14:52:33.861Z,75.83
2018-11-13T14:53:33.849Z,76.13
2018-11-13T14:54:33.842Z,77.28
2018-11-13T14:55:33.828Z,77.08
2018-11-13T14:56:33.816Z,77.22
2018-11-13T14:57:33.807Z,77.73
2018-11-13T14:58:33.792Z,78.58
2018-11-13T14:59:33.782Z,78.85
2018-11-13T15:00:33.772Z,78.74
2018-11-13T15:01:33.832Z,78.98
2018-11-13T15:02:33.756Z,78.88
2018-11-13T15:03:33.739Z,78.68
2018-11-13T15:04:33.730Z,78.88
2018-11-13T15:05:33.717Z,78.88
2018-11-13T15:06:33.705Z,78.98
2018-11-13T15:07:33.694Z,78.78
2018-11-13T15:08:34.595Z,78.78
2018-11-13T15:09:33.668Z,78.88
2018-11-13T15:10:33.656Z,79.39
2018-11-13T15:11:33.645Z,79.39
2018-11-13T15:12:33.634Z,79.49
2018-11-13T15:13:33.629Z,79.29
2018-11-13T15:14:33.618Z,78.68
2018-11-13T15:15:33.608Z,78.98
2018-11-13T15:16:33.590Z,79.49
2018-11-13T15:17:33.578Z,79.59
2018-11-13T15:18:33.567Z,79.69
2018-11-13T15:19:33.564Z,79.90
2018-11-13T15:20:33.543Z,79.69
2018-11-13T15:21:33.822Z,80.20
2018-11-13T15:22:33.573Z,79.90
2018-11-13T15:23:33.510Z,79.80
2018-11-13T15:24:33.533Z,79.90
2018-11-13T15:25:33.492Z,79.80
2018-11-13T15:26:33.478Z,80.00
2018-11-13T15:27:33.472Z,80.10
2018-11-13T15:28:33.458Z,79.90
2018-11-13T15:29:33.444Z,80.00
2018-11-13T15:30:33.432Z,80.14
2018-11-13T15:31:33.421Z,80.75
2018-11-13T15:32:33.408Z,80.92
2018-11-13T15:33:33.396Z,80.92
2018-11-13T15:34:33.384Z,80.71
2018-11-13T15:35:33.389Z,80.92
2018-11-13T15:36:33.411Z,81.62
2018-11-13T15:37:33.352Z,81.26
2018-11-13T15:38:33.340Z,81.97
2018-11-13T15:39:33.326Z,82.07
2018-11-13T15:40:33.318Z,82.03
2018-11-13T15:41:33.305Z,81.26
2018-11-13T15:42:33.292Z,80.92
2018-11-13T15:43:33.281Z,81.12
2018-11-13T15:44:33.397Z,81.06
2018-11-13T15:45:33.261Z,81.12
2018-11-13T15:46:33.251Z,80.81
2018-11-13T15:47:33.381Z,78.71
2018-11-13T15:48:33.224Z,78.82
2018-11-13T15:51:33.212Z,79.53
2018-11-13T15:52:33.274Z,79.12
2018-11-13T15:53:33.182Z,78.71
2018-11-13T15:54:33.155Z,78.61
2018-11-13T15:55:33.148Z,78.00
2018-11-13T15:56:33.134Z,77.74
2018-11-13T15:57:33.128Z,78.45
2018-11-13T15:58:33.124Z,78.45
2018-11-13T15:59:33.099Z,78.45
2018-11-13T16:00:33.092Z,78.41
2018-11-13T16:01:33.076Z,78.51
2018-11-13T16:02:33.072Z,77.09
2018-11-13T16:03:33.058Z,77.19
2018-11-13T16:04:33.042Z,78.21
2018-11-13T16:05:33.033Z,77.25
2018-11-13T16:06:33.176Z,75.83
2018-11-13T16:07:33.008Z,75.93
2018-11-13T16:08:32.998Z,74.82
2018-11-13T16:09:32.984Z,75.22
2018-11-13T16:10:32.981Z,75.53
2018-11-13T16:11:32.963Z,74.41
2018-11-13T16:12:32.995Z,74.21
2018-11-13T16:13:32.945Z,74.92
2018-11-13T16:14:32.929Z,74.92
2018-11-13T16:15:32.917Z,74.61
2018-11-13T16:16:32.906Z,74.61
2018-11-13T16:17:32.902Z,74.31
2018-11-13T16:18:32.947Z,74.71
2018-11-13T16:19:32.871Z,73.60
2018-11-13T16:20:32.860Z,73.63
2018-11-13T16:21:32.882Z,74.95
2018-11-13T16:22:32.839Z,75.50
2018-11-13T16:23:32.827Z,75.19
2018-11-13T16:24:32.813Z,75.50
2018-11-13T16:25:32.801Z,76.14
2018-11-13T16:26:32.796Z,76.59
2018-11-13T16:27:32.779Z,76.59
2018-11-13T16:28:32.766Z,76.89
2018-11-13T16:29:32.787Z,76.79
2018-11-13T16:30:32.818Z,77.60
2018-11-13T16:31:32.844Z,77.20
2018-11-13T16:32:32.721Z,77.50
2018-11-13T16:33:32.715Z,77.20
2018-11-13T16:34:32.700Z,76.89
2018-11-13T16:35:32.768Z,76.59
2018-11-13T16:36:32.851Z,76.48
2018-11-13T16:37:32.665Z,76.48
2018-11-13T16:38:32.678Z,77.40
2018-11-13T16:39:32.640Z,77.20
2018-11-13T16:40:32.628Z,76.28
2018-11-13T16:41:32.691Z,76.25
2018-11-13T16:42:32.606Z,76.25
2018-11-13T16:43:32.594Z,76.34
2018-11-13T16:44:32.591Z,76.45
2018-11-13T16:45:32.600Z,76.04
2018-11-13T16:46:32.560Z,75.94
2018-11-13T16:47:32.553Z,75.60
2018-11-13T16:48:32.537Z,75.50
2018-11-13T16:49:32.525Z,75.39
2018-11-13T16:50:32.514Z,74.48
2018-11-13T16:51:32.502Z,75.09
2018-11-13T16:52:32.491Z,74.68
2018-11-13T16:53:32.480Z,74.07
2018-11-13T16:54:32.474Z,73.56
2018-11-13T16:55:32.456Z,73.77
2018-11-13T16:56:32.446Z,73.97
2018-11-13T16:57:32.435Z,73.46
2018-11-13T16:58:32.432Z,73.05
2018-11-13T16:59:32.436Z,72.82
2018-11-13T17:00:32.518Z,72.92
2018-11-13T17:01:32.393Z,73.12
2018-11-13T17:02:32.410Z,72.82
2018-11-13T17:03:32.435Z,73.36
2018-11-13T17:04:32.355Z,73.66
2018-11-13T17:05:32.600Z,73.36
2018-11-13T17:06:32.450Z,73.80
2018-11-13T17:07:32.327Z,74.01
2018-11-13T17:08:32.316Z,74.51
2018-11-13T17:09:32.298Z,74.82
2018-11-13T17:10:32.288Z,74.07
2018-11-13T17:11:32.405Z,73.46
2018-11-13T17:12:32.263Z,73.46
2018-11-13T17:13:32.256Z,73.26
2018-11-13T17:14:32.271Z,73.46
2018-11-13T17:15:32.237Z,72.95
2018-11-13T17:16:32.272Z,72.95
2018-11-13T17:17:32.243Z,72.55
2018-11-13T17:18:32.194Z,73.26
2018-11-13T17:19:32.211Z,73.05
2018-11-13T17:20:32.233Z,72.44
2018-11-13T17:21:32.158Z,72.65
2018-11-13T17:22:32.145Z,72.55
2018-11-13T17:23:32.141Z,72.95
2018-11-13T17:24:32.123Z,72.65
2018-11-13T17:25:32.120Z,72.65
2018-11-13T17:26:32.110Z,72.55
2018-11-13T17:27:32.167Z,72.03
2018-11-13T17:28:32.077Z,71.83
2018-11-13T17:29:32.067Z,70.81
2018-11-13T17:30:32.056Z,70.92
2018-11-13T17:31:32.193Z,70.20
2018-11-13T17:33:32.021Z,70.14
2018-11-13T17:34:32.010Z,70.23
2018-11-13T17:35:31.999Z,70.34
2018-11-13T17:36:31.998Z,70.85
2018-11-13T17:37:31.974Z,69.62
2018-11-13T17:38:31.965Z,70.44
2018-11-13T17:39:31.951Z,70.44
2018-11-13T17:40:31.939Z,70.85
2018-11-13T17:42:31.922Z,70.27
2018-11-13T17:43:31.906Z,70.95
2018-11-13T17:44:31.894Z,70.95
2018-11-13T17:45:31.885Z,70.47
2018-11-13T17:46:31.875Z,70.95
2018-11-13T17:47:31.859Z,71.29
2018-11-13T17:48:31.854Z,70.95
2018-11-13T17:49:31.838Z,70.98
2018-11-13T17:50:31.829Z,70.88
2018-11-13T17:51:31.814Z,71.39
2018-11-13T17:52:31.802Z,70.58
2018-11-13T17:53:31.886Z,70.17
2018-11-13T17:54:31.782Z,70.17
2018-11-13T17:55:31.773Z,70.27
2018-11-13T17:56:31.757Z,71.39
2018-11-13T17:57:31.752Z,70.58
2018-11-13T17:58:31.738Z,70.98
2018-11-13T17:59:31.733Z,70.68
2018-11-13T18:04:31.665Z,70.71
2018-11-13T18:06:31.644Z,71.02
2018-11-13T18:07:31.756Z,71.22
2018-11-13T18:08:31.622Z,70.41
2018-11-13T18:10:31.599Z,69.59
2018-11-13T18:14:31.601Z,70.20
2018-11-13T18:15:31.540Z,71.32
2018-11-13T18:16:31.533Z,71.42
2018-11-13T18:19:31.499Z,70.61
2018-11-13T18:21:31.599Z,70.74
2018-11-13T18:22:31.466Z,70.84
2018-11-13T18:25:31.439Z,71.77
2018-11-13T18:30:31.392Z,71.49
2018-11-13T18:31:31.394Z,71.39
2018-11-13T18:33:31.337Z,71.52
2018-11-13T18:37:31.303Z,71.80
2018-11-13T18:38:31.418Z,71.52
2018-11-13T18:40:31.294Z,71.93
2018-11-13T18:42:31.238Z,71.42
2018-11-13T18:43:31.226Z,72.24
2018-11-13T18:44:31.240Z,72.75
2018-11-13T18:45:31.204Z,71.83
2018-11-13T18:46:31.196Z,72.24
2018-11-13T18:47:31.182Z,72.95
2018-11-13T18:48:31.173Z,72.88
2018-11-13T18:51:31.141Z,72.79
2018-11-13T18:52:31.126Z,72.85
2018-11-13T18:54:31.103Z,72.55
2018-11-13T18:55:31.088Z,73.29
2018-11-13T18:56:31.081Z,73.19
2018-11-13T18:57:31.064Z,73.50
2018-11-13T18:58:31.061Z,72.99
2018-11-13T18:59:31.095Z,73.29
2018-11-13T19:00:31.041Z,72.99
2018-11-13T19:01:31.024Z,73.50
2018-11-13T19:02:31.008Z,73.29
2018-11-13T19:03:30.997Z,73.50
2018-11-13T19:05:30.976Z,73.91
2018-11-13T19:16:30.855Z,74.65
2018-11-13T19:20:30.810Z,74.76
2018-11-13T19:21:30.796Z,75.27
2018-11-13T19:23:30.774Z,75.17
2018-11-13T19:24:30.762Z,75.37
2018-11-13T19:25:30.752Z,75.47
2018-11-13T19:26:30.740Z,75.68
2018-11-13T19:27:30.733Z,75.68
2018-11-13T19:28:30.716Z,75.68
2018-11-13T19:29:30.733Z,75.61
2018-11-13T19:30:30.705Z,76.02
2018-11-13T19:31:30.706Z,76.22
2018-11-13T19:33:30.665Z,76.33
2018-11-13T19:34:30.649Z,76.53
2018-11-13T19:36:30.806Z,76.53